KDOV/DOV METAR and TAF weather

Enter ICAO airport designator
Station Type Date Time Source
KDOV METAR 2021/05/14 12:56 UTC NOAA

KDOV 141256Z AUTO 35005KT 10SM CLR 17/05 A3024 RMK AO2 SLP244 T01660052 $


Station Type Date Time Source
KDOV Decoded METAR 2021/05/14 12:56 UTC NOAA

Dover Air Force Base, DE, United States (KDOV) 39-08N 075-28W
May 14, 2021 - 08:56 AM EDT / 2021.05.14 1256 UTC
Wind: from the N (350 degrees) at 6 MPH (5 KT):0
Visibility: 10 mile(s):0
Sky conditions: clear
Temperature: 61.9 F (16.6 C)
Dew Point: 41.4 F (5.2 C)
Relative Humidity: 46%
Pressure (altimeter): 30.24 in. Hg (1024 hPa)
ob: KDOV 141256Z AUTO 35005KT 10SM CLR 17/05 A3024 RMK AO2 SLP244 T01660052
cycle: 13

Station Type Date Time Source
KDOV TAF 2021/05/14 08:57 UTC NOAA

TAF TAF KDOV 140800Z 1408/1514 VRB06KT 9999 FEW070 SCT100 QNH3020INS
BECMG 1504/1505 22006KT 9999 FEW060 SCT090 QNH3023INS TX19/1418Z TN09/1410Z

Example: see airport list